Time;durP1;ratioP1;P1;durP2;ratioP2;P2;SDS_P1;SDS_P2;PMS_P1;PMS_P2;Temp;Humidity;BMP_temperature;BMP_pressure;BME280_temperature;BME280_humidity;BME280_pressure;Samples;Min_cycle;Max_cycle;Signal;HPM_P1;HPM_P2
2023/02/24 00:02:13;;;;;;;18.90;11.57;;;;;;;;;;4987969;28;20603;-72
2023/02/24 00:04:39;;;;;;;20.13;11.55;;;;;;;;;;4991298;28;20037;-72
2023/02/24 00:07:05;;;;;;;18.35;10.57;;;;;;;;;;4989802;28;20762;-71
2023/02/24 00:09:32;;;;;;;16.85;9.32;;;;;;;;;;5008867;28;20033;-72
2023/02/24 00:12:01;;;;;;;15.57;9.43;;;;;;;;;;4989437;28;20022;-71
2023/02/24 00:14:27;;;;;;;17.40;9.40;;;;;;;;;;4991275;28;20026;-77
2023/02/24 00:16:52;;;;;;;16.15;9.48;;;;;;;;;;5013280;28;20288;-76
2023/02/24 00:19:19;;;;;;;16.70;9.90;;;;;;;;;;5007859;28;20030;-77
2023/02/24 00:21:44;;;;;;;18.27;10.52;;;;;;;;;;5007116;28;20065;-79
2023/02/24 00:24:10;;;;;;;16.80;10.65;;;;;;;;;;4991292;28;20052;-76
2023/02/24 00:26:35;;;;;;;18.95;9.55;;;;;;;;;;5008115;28;20494;-75
2023/02/24 00:29:03;;;;;;;20.88;11.60;;;;;;;;;;5008464;28;20018;-76
2023/02/24 00:31:29;;;;;;;19.35;10.23;;;;;;;;;;5011356;28;20034;-78
2023/02/24 00:33:55;;;;;;;16.90;9.80;;;;;;;;;;5013083;28;20037;-72
2023/02/24 00:36:24;;;;;;;18.77;10.18;;;;;;;;;;5001306;28;20480;-76
2023/02/24 00:38:56;;;;;;;20.08;12.15;;;;;;;;;;5006370;28;20022;-75
2023/02/24 00:41:28;;;;;;;18.05;10.02;;;;;;;;;;5008451;28;20029;-76
2023/02/24 00:43:55;;;;;;;17.25;10.48;;;;;;;;;;5006593;28;20072;-77
2023/02/24 00:46:24;;;;;;;18.38;10.00;;;;;;;;;;5004300;28;20464;-75
2023/02/24 00:48:53;;;;;;;17.63;9.90;;;;;;;;;;5013002;28;20037;-75
2023/02/24 00:51:22;;;;;;;17.77;11.98;;;;;;;;;;5003966;28;20030;-76
2023/02/24 00:53:48;;;;;;;15.90;10.45;;;;;;;;;;4990985;28;20046;-75
2023/02/24 00:56:15;;;;;;;20.80;11.13;;;;;;;;;;5006392;28;20468;-74
2023/02/24 00:58:41;;;;;;;22.10;10.57;;;;;;;;;;4988421;28;20125;-74
2023/02/24 01:01:15;;;;;;;16.20;10.43;;;;;;;;;;5006808;28;20068;-72
2023/02/24 01:03:41;;;;;;;18.88;11.43;;;;;;;;;;5002801;28;20897;-74
2023/02/24 01:06:06;;;;;;;21.60;11.70;;;;;;;;;;4988675;28;20060;-74
2023/02/24 01:08:35;;;;;;;18.35;11.20;;;;;;;;;;4990333;28;20087;-69
2023/02/24 01:13:44;;;;;;;21.25;11.77;;;;;;;;;;5002233;28;20037;-74
2023/02/24 01:16:13;;;;;;;18.52;11.95;;;;;;;;;;5004201;28;20037;-73
2023/02/24 01:18:38;;;;;;;19.60;12.48;;;;;;;;;;5005646;28;20116;-73
2023/02/24 01:21:04;;;;;;;18.65;11.23;;;;;;;;;;4991335;28;20022;-73
2023/02/24 01:23:29;;;;;;;22.02;11.80;;;;;;;;;;5007444;28;20033;-72
2023/02/24 01:25:58;;;;;;;20.63;12.25;;;;;;;;;;5005505;28;20026;-71
2023/02/24 01:28:24;;;;;;;19.50;10.90;;;;;;;;;;4985541;28;20030;-74
2023/02/24 01:30:49;;;;;;;24.27;12.43;;;;;;;;;;4987659;28;20436;-76
2023/02/24 01:33:14;;;;;;;20.50;10.87;;;;;;;;;;5004401;28;20027;-76
2023/02/24 01:35:40;;;;;;;16.07;10.03;;;;;;;;;;5003710;28;20377;-75
2023/02/24 01:38:05;;;;;;;20.67;11.30;;;;;;;;;;4988190;28;20284;-76
2023/02/24 01:40:30;;;;;;;23.73;12.57;;;;;;;;;;4993831;28;20161;-78
2023/02/24 01:42:56;;;;;;;23.88;15.93;;;;;;;;;;4989313;28;20072;-76
2023/02/24 01:45:23;;;;;;;25.40;14.63;;;;;;;;;;5002519;28;20029;-75
2023/02/24 01:47:49;;;;;;;24.15;14.38;;;;;;;;;;4985906;28;20308;-77
2023/02/24 01:50:20;;;;;;;19.00;13.15;;;;;;;;;;4989510;28;20026;-77
2023/02/24 01:52:46;;;;;;;20.10;13.90;;;;;;;;;;5018913;28;20103;-78
2023/02/24 01:55:21;;;;;;;25.45;13.85;;;;;;;;;;4986286;28;20029;-76
2023/02/24 01:57:47;;;;;;;21.90;12.38;;;;;;;;;;4987529;28;20038;-79
2023/02/24 02:03:01;;;;;;;21.17;13.77;;;;;;;;;;5003852;28;20046;-75
2023/02/24 02:05:26;;;;;;;20.75;14.73;;;;;;;;;;4992293;28;20014;-74
2023/02/24 02:07:52;;;;;;;23.25;15.45;;;;;;;;;;5007383;28;20936;-74
2023/02/24 02:10:17;;;;;;;25.58;15.52;;;;;;;;;;4990881;28;20385;-75
2023/02/24 02:12:43;;;;;;;21.43;13.93;;;;;;;;;;5007122;28;20034;-76
2023/02/24 02:15:11;;;;;;;24.10;14.43;;;;;;;;;;4990515;28;20280;-77
2023/02/24 02:17:37;;;;;;;22.77;15.10;;;;;;;;;;5010126;28;20037;-76
2023/02/24 02:20:14;;;;;;;23.77;16.63;;;;;;;;;;4992335;28;20018;-75
2023/02/24 02:22:46;;;;;;;24.05;16.33;;;;;;;;;;5010306;28;20037;-75
2023/02/24 02:25:11;;;;;;;21.75;15.40;;;;;;;;;;4998948;28;20335;-74
2023/02/24 02:27:56;;;;;;;22.85;15.02;;;;;;;;;;5007246;28;20460;-75
2023/02/24 02:30:22;;;;;;;22.50;14.68;;;;;;;;;;5007686;28;20475;-75
2023/02/24 02:32:50;;;;;;;21.70;14.05;;;;;;;;;;5010112;28;20534;-75
2023/02/24 02:35:35;;;;;;;24.38;14.20;;;;;;;;;;5004468;28;20037;-74
2023/02/24 02:38:24;;;;;;;23.77;15.15;;;;;;;;;;5005030;28;20030;-75
2023/02/24 02:40:55;;;;;;;24.43;15.27;;;;;;;;;;5003982;28;20037;-69
2023/02/24 02:43:33;;;;;;;20.45;13.75;;;;;;;;;;5009919;28;20283;-71
2023/02/24 02:46:07;;;;;;;23.80;15.40;;;;;;;;;;5007771;28;20029;-72
2023/02/24 02:48:40;;;;;;;22.08;14.25;;;;;;;;;;4991493;28;20362;-71
2023/02/24 02:51:15;;;;;;;20.88;14.35;;;;;;;;;;5007962;28;20046;-71
2023/02/24 02:54:03;;;;;;;25.58;14.50;;;;;;;;;;4988120;28;20040;-72
2023/02/24 02:57:01;;;;;;;26.27;14.75;;;;;;;;;;5018800;28;20085;-72
2023/02/24 02:59:28;;;;;;;23.58;14.88;;;;;;;;;;4958205;28;20531;-72
2023/02/24 03:01:59;;;;;;;24.70;14.30;;;;;;;;;;4984903;28;20026;-76
2023/02/24 03:04:28;;;;;;;20.73;12.75;;;;;;;;;;5000872;28;20029;-76
2023/02/24 03:06:59;;;;;;;21.00;12.95;;;;;;;;;;5008431;28;20090;-76
2023/02/24 03:09:29;;;;;;;21.75;13.30;;;;;;;;;;5008415;28;20026;-75
2023/02/24 03:12:01;;;;;;;20.58;13.95;;;;;;;;;;5004774;28;20035;-75
2023/02/24 03:14:28;;;;;;;20.05;12.98;;;;;;;;;;5009462;28;20061;-75
2023/02/24 03:16:54;;;;;;;23.75;14.05;;;;;;;;;;5007280;28;20034;-78
2023/02/24 03:19:24;;;;;;;24.45;16.05;;;;;;;;;;4990173;28;20125;-74
2023/02/24 03:22:13;;;;;;;22.20;13.98;;;;;;;;;;5006340;28;20025;-77
2023/02/24 03:24:39;;;;;;;21.80;13.25;;;;;;;;;;5006094;28;20033;-77
2023/02/24 03:27:08;;;;;;;22.50;13.93;;;;;;;;;;4994061;28;20108;-77
2023/02/24 03:29:47;;;;;;;22.08;14.75;;;;;;;;;;4990714;28;20029;-77
2023/02/24 03:32:16;;;;;;;23.30;15.35;;;;;;;;;;5003588;28;20088;-76
2023/02/24 03:34:43;;;;;;;25.85;16.38;;;;;;;;;;5010091;28;20033;-75
2023/02/24 03:37:08;;;;;;;22.60;13.60;;;;;;;;;;4988253;28;20037;-70
2023/02/24 03:39:34;;;;;;;24.58;15.65;;;;;;;;;;4989725;28;20030;-71
2023/02/24 03:42:06;;;;;;;24.27;14.68;;;;;;;;;;4990077;28;20313;-69
2023/02/24 03:44:31;;;;;;;26.50;15.68;;;;;;;;;;4990790;28;20018;-69
2023/02/24 03:46:57;;;;;;;21.77;13.57;;;;;;;;;;4990010;28;20116;-72
2023/02/24 03:49:24;;;;;;;26.73;15.27;;;;;;;;;;5005325;28;20469;-70
2023/02/24 03:51:55;;;;;;;24.67;14.27;;;;;;;;;;4984716;28;20026;-70
2023/02/24 03:54:36;;;;;;;24.20;14.55;;;;;;;;;;4980103;28;20470;-69
2023/02/24 03:57:04;;;;;;;21.30;13.57;;;;;;;;;;5003254;28;20030;-76
2023/02/24 03:59:35;;;;;;;20.50;13.70;;;;;;;;;;5011022;28;20368;-76
2023/02/24 04:02:06;;;;;;;25.27;14.45;;;;;;;;;;5004825;28;20022;-76
2023/02/24 04:04:36;;;;;;;22.48;13.75;;;;;;;;;;5007685;28;20031;-76
2023/02/24 04:07:11;;;;;;;22.23;14.30;;;;;;;;;;5003800;28;20021;-76
2023/02/24 04:09:56;;;;;;;24.10;14.15;;;;;;;;;;5004718;28;20075;-76
2023/02/24 04:12:41;;;;;;;21.13;13.02;;;;;;;;;;4999510;28;20025;-72
2023/02/24 04:15:30;;;;;;;20.20;13.98;;;;;;;;;;4986646;28;20128;-76
2023/02/24 04:17:57;;;;;;;24.30;14.07;;;;;;;;;;5003264;28;20487;-77
2023/02/24 04:20:26;;;;;;;19.80;12.15;;;;;;;;;;4987729;28;20084;-78
2023/02/24 04:22:55;;;;;;;20.63;12.98;;;;;;;;;;5006916;28;20022;-77
2023/02/24 04:25:23;;;;;;;24.02;14.70;;;;;;;;;;5005327;28;20025;-78
2023/02/24 04:27:50;;;;;;;23.42;13.45;;;;;;;;;;4986970;28;20117;-77
2023/02/24 04:30:16;;;;;;;21.92;13.68;;;;;;;;;;4985497;28;20108;-72
2023/02/24 04:32:41;;;;;;;19.40;12.77;;;;;;;;;;5012334;28;20068;-74
2023/02/24 04:35:08;;;;;;;24.92;14.48;;;;;;;;;;4989108;28;20366;-77
2023/02/24 04:37:39;;;;;;;23.50;14.02;;;;;;;;;;5003314;28;20061;-77
2023/02/24 04:40:15;;;;;;;32.00;15.20;;;;;;;;;;5003286;28;20050;-76
2023/02/24 04:42:45;;;;;;;31.58;19.40;;;;;;;;;;4988480;28;20101;-76
2023/02/24 04:45:20;;;;;;;32.58;19.38;;;;;;;;;;4988275;28;20071;-77
2023/02/24 04:47:50;;;;;;;32.63;19.95;;;;;;;;;;4987762;28;20082;-78
2023/02/24 04:50:23;;;;;;;26.83;18.52;;;;;;;;;;4983146;28;20105;-74
2023/02/24 04:52:50;;;;;;;29.75;19.63;;;;;;;;;;5008789;28;20041;-76
2023/02/24 04:55:16;;;;;;;34.17;20.40;;;;;;;;;;5006154;28;20030;-75
2023/02/24 04:57:44;;;;;;;33.35;21.70;;;;;;;;;;5004298;28;20029;-76
2023/02/24 05:00:19;;;;;;;38.78;22.02;;;;;;;;;;4985959;28;20665;-75
2023/02/24 05:02:44;;;;;;;35.58;21.33;;;;;;;;;;4987448;28;20141;-75
2023/02/24 05:05:10;;;;;;;39.05;21.65;;;;;;;;;;5010807;28;20061;-75
2023/02/24 05:07:35;;;;;;;39.07;20.97;;;;;;;;;;4986991;28;20041;-76
2023/02/24 05:10:01;;;;;;;36.60;23.17;;;;;;;;;;5001069;28;20280;-77
2023/02/24 05:12:28;;;;;;;34.10;20.38;;;;;;;;;;5003906;28;20268;-76
2023/02/24 05:14:53;;;;;;;39.33;23.63;;;;;;;;;;5003437;28;20030;-77
2023/02/24 05:17:18;;;;;;;36.08;21.95;;;;;;;;;;5002870;28;20041;-77
2023/02/24 05:22:28;;;;;;;36.28;21.00;;;;;;;;;;4997953;28;20084;-77
2023/02/24 05:24:55;;;;;;;36.00;19.65;;;;;;;;;;4984266;28;20029;-77
2023/02/24 05:27:21;;;;;;;40.22;22.38;;;;;;;;;;4983090;28;20038;-72
2023/02/24 05:29:47;;;;;;;40.33;22.23;;;;;;;;;;5001680;28;20084;-70
2023/02/24 05:32:15;;;;;;;40.30;23.20;;;;;;;;;;4985612;28;20045;-71
2023/02/24 05:34:41;;;;;;;38.53;22.88;;;;;;;;;;5005518;28;20034;-71
2023/02/24 05:37:09;;;;;;;37.53;21.48;;;;;;;;;;5012419;28;20600;-71
2023/02/24 05:39:34;;;;;;;44.58;24.25;;;;;;;;;;4990866;28;20030;-71
2023/02/24 05:42:05;;;;;;;36.05;22.50;;;;;;;;;;4987044;28;20026;-72
2023/02/24 05:44:31;;;;;;;36.53;21.65;;;;;;;;;;5003587;28;20060;-72
2023/02/24 05:46:59;;;;;;;36.28;21.33;;;;;;;;;;4985977;28;20369;-75
2023/02/24 05:49:27;;;;;;;37.65;20.95;;;;;;;;;;5003361;28;20415;-75
2023/02/24 05:51:54;;;;;;;39.65;21.67;;;;;;;;;;5003317;28;20056;-76
2023/02/24 05:54:21;;;;;;;37.20;21.40;;;;;;;;;;4999615;28;20057;-76
2023/02/24 05:56:47;;;;;;;37.65;22.05;;;;;;;;;;5001919;28;20046;-75
2023/02/24 05:59:16;;;;;;;37.80;22.27;;;;;;;;;;5001948;28;20072;-76
2023/02/24 06:01:44;;;;;;;;;;;;;;;;;;5002350;28;20091;-75
2023/02/24 06:04:09;;;;;;;41.00;23.70;;;;;;;;;;5005102;28;19913;-69
2023/02/24 06:06:36;;;;;;;41.60;23.80;;;;;;;;;;5004138;28;20558;-76
2023/02/24 06:09:08;;;;;;;36.78;22.50;;;;;;;;;;5012364;28;20076;-76
2023/02/24 06:11:34;;;;;;;43.08;22.08;;;;;;;;;;5000833;28;20108;-76
2023/02/24 06:13:59;;;;;;;38.08;22.95;;;;;;;;;;4985314;28;20644;-76
2023/02/24 06:16:28;;;;;;;34.75;21.50;;;;;;;;;;4985188;28;20691;-75
2023/02/24 06:18:55;;;;;;;36.67;20.00;;;;;;;;;;5003582;28;20126;-75
2023/02/24 06:21:20;;;;;;;37.38;21.45;;;;;;;;;;4984790;28;20122;-68
2023/02/24 06:23:46;;;;;;;40.53;22.25;;;;;;;;;;4989600;28;20108;-76
2023/02/24 06:26:18;;;;;;;40.92;22.73;;;;;;;;;;5003472;28;20120;-74
2023/02/24 06:28:45;;;;;;;35.22;21.55;;;;;;;;;;5009796;28;20036;-74
2023/02/24 06:31:11;;;;;;;38.22;21.08;;;;;;;;;;4967639;28;20038;-76
2023/02/24 06:33:39;;;;;;;37.22;22.67;;;;;;;;;;4939211;28;20766;-75
2023/02/24 06:36:05;;;;;;;38.50;21.98;;;;;;;;;;4919869;29;20052;-75
2023/02/24 06:38:31;;;;;;;40.42;21.30;;;;;;;;;;4935521;28;20162;-74
2023/02/24 06:40:57;;;;;;;36.28;20.25;;;;;;;;;;4943563;28;20040;-74
2023/02/24 06:43:22;;;;;;;40.08;22.88;;;;;;;;;;4924682;28;20634;-77
2023/02/24 06:45:48;;;;;;;36.00;20.73;;;;;;;;;;4934287;28;20050;-77
2023/02/24 06:48:14;;;;;;;31.58;21.20;;;;;;;;;;4933925;29;20290;-75
2023/02/24 06:50:39;;;;;;;38.83;20.67;;;;;;;;;;4944314;28;20110;-75
2023/02/24 06:53:08;;;;;;;39.67;22.37;;;;;;;;;;4924625;29;20098;-74
2023/02/24 06:55:35;;;;;;;38.92;23.45;;;;;;;;;;4920081;28;20283;-75
2023/02/24 06:58:03;;;;;;;43.40;26.60;;;;;;;;;;4922586;29;20031;-76
2023/02/24 07:00:39;;;;;;;43.78;25.63;;;;;;;;;;4925632;29;20071;-77
2023/02/24 07:03:13;;;;;;;44.70;25.02;;;;;;;;;;4961651;28;20474;-77
2023/02/24 07:05:49;;;;;;;49.22;26.23;;;;;;;;;;5004460;28;20041;-75
2023/02/24 07:08:18;;;;;;;42.60;26.90;;;;;;;;;;4997079;28;20050;-75
2023/02/24 07:10:44;;;;;;;44.28;25.05;;;;;;;;;;5010096;28;20033;-75
2023/02/24 07:13:09;;;;;;;46.72;25.63;;;;;;;;;;4999068;28;20050;-73
2023/02/24 07:15:35;;;;;;;50.50;26.52;;;;;;;;;;5009346;28;20025;-71
2023/02/24 07:18:01;;;;;;;48.05;28.88;;;;;;;;;;5010180;28;20082;-69
2023/02/24 07:20:28;;;;;;;43.58;25.92;;;;;;;;;;5010489;28;20076;-72
2023/02/24 07:22:54;;;;;;;42.53;23.85;;;;;;;;;;5010214;28;20583;-75
2023/02/24 07:25:32;;;;;;;47.33;26.58;;;;;;;;;;4989288;28;20110;-74
2023/02/24 07:28:00;;;;;;;48.15;28.30;;;;;;;;;;5010200;28;20096;-72
2023/02/24 07:30:25;;;;;;;45.80;25.00;;;;;;;;;;5010016;28;20022;-72
2023/02/24 07:32:54;;;;;;;45.15;25.23;;;;;;;;;;5009018;28;20029;-74
2023/02/24 07:35:19;;;;;;;51.67;27.02;;;;;;;;;;5008500;28;20057;-68
2023/02/24 07:37:47;;;;;;;50.95;26.23;;;;;;;;;;4991508;28;20501;-75
2023/02/24 07:40:16;;;;;;;43.08;25.83;;;;;;;;;;5011962;28;20539;-80
2023/02/24 07:42:41;;;;;;;49.33;27.20;;;;;;;;;;5007144;28;20146;-81
2023/02/24 07:45:07;;;;;;;52.08;26.25;;;;;;;;;;5015165;28;20105;-82
2023/02/24 07:47:32;;;;;;;45.28;26.70;;;;;;;;;;5008942;28;20049;-78
2023/02/24 07:49:59;;;;;;;48.03;26.20;;;;;;;;;;4990641;28;20073;-80
2023/02/24 07:52:24;;;;;;;43.35;25.05;;;;;;;;;;5008968;28;20029;-71
2023/02/24 07:54:49;;;;;;;43.28;25.85;;;;;;;;;;4990964;28;20059;-71
2023/02/24 07:57:17;;;;;;;44.70;23.73;;;;;;;;;;5009898;28;20056;-75
2023/02/24 07:59:45;;;;;;;55.85;27.17;;;;;;;;;;5006662;28;20813;-75
2023/02/24 08:02:12;;;;;;;45.13;24.67;;;;;;;;;;5009228;28;20223;-68
2023/02/24 08:04:40;;;;;;;37.75;22.00;;;;;;;;;;5008216;28;20057;-69
2023/02/24 08:07:11;;;;;;;47.13;24.92;;;;;;;;;;5008843;28;20425;-70
2023/02/24 08:10:08;;;;;;;45.42;25.08;;;;;;;;;;5007137;28;20021;-70
2023/02/24 08:12:33;;;;;;;44.08;24.10;;;;;;;;;;5008154;28;20103;-74
2023/02/24 08:14:59;;;;;;;42.75;24.38;;;;;;;;;;4994541;28;20049;-71
2023/02/24 08:17:25;;;;;;;44.05;26.15;;;;;;;;;;5013332;28;20029;-72
2023/02/24 08:20:20;;;;;;;41.88;23.33;;;;;;;;;;5008892;28;20041;-71
2023/02/24 08:22:36;;;;;;;40.75;22.85;;;;;;;;;;5001426;28;20029;-71
2023/02/24 08:25:05;;;;;;;45.00;25.20;;;;;;;;;;4987667;28;20602;-73
2023/02/24 08:27:30;;;;;;;42.92;22.00;;;;;;;;;;4987161;28;20336;-71
2023/02/24 08:29:59;;;;;;;40.60;22.17;;;;;;;;;;5006213;28;20430;-74
2023/02/24 08:32:42;;;;;;;42.03;23.50;;;;;;;;;;5007326;28;20029;-71
2023/02/24 08:35:13;;;;;;;40.13;23.02;;;;;;;;;;5008068;28;20037;-73
2023/02/24 08:37:45;;;;;;;38.17;22.02;;;;;;;;;;5007514;28;20630;-72
2023/02/24 08:40:36;;;;;;;36.70;21.02;;;;;;;;;;5008879;28;20092;-70
2023/02/24 08:43:18;;;;;;;39.45;23.42;;;;;;;;;;5006472;28;20052;-70
2023/02/24 08:45:51;;;;;;;37.72;20.40;;;;;;;;;;5006223;28;20468;-69
2023/02/24 08:48:36;;;;;;;31.75;19.42;;;;;;;;;;5015915;28;20064;-70
2023/02/24 08:51:04;;;;;;;31.40;18.40;;;;;;;;;;5006777;28;20057;-75
2023/02/24 08:53:32;;;;;;;33.30;19.67;;;;;;;;;;4990881;28;20117;-78
2023/02/24 08:55:59;;;;;;;32.63;19.50;;;;;;;;;;5008001;28;20033;-77
2023/02/24 08:58:27;;;;;;;32.42;19.08;;;;;;;;;;4990023;28;20034;-82
2023/02/24 09:00:57;;;;;;;28.80;17.92;;;;;;;;;;4988571;28;20091;-77
2023/02/24 09:03:32;;;;;;;32.60;19.33;;;;;;;;;;4989450;28;20030;-76
2023/02/24 09:06:05;;;;;;;28.77;16.65;;;;;;;;;;4987667;28;20033;-74
2023/02/24 09:08:37;;;;;;;27.80;16.50;;;;;;;;;;5007810;28;20698;-78
2023/02/24 09:11:06;;;;;;;24.60;14.88;;;;;;;;;;5005105;28;20040;-73
2023/02/24 09:13:32;;;;;;;26.65;14.82;;;;;;;;;;5010407;28;20033;-77
2023/02/24 09:15:58;;;;;;;23.52;15.13;;;;;;;;;;5009808;28;20037;-75
2023/02/24 09:18:29;;;;;;;24.08;13.05;;;;;;;;;;5010319;28;20053;-71
2023/02/24 09:21:16;;;;;;;29.67;14.20;;;;;;;;;;5014631;28;20106;-74
2023/02/24 09:23:45;;;;;;;26.15;13.80;;;;;;;;;;5005082;28;20532;-72
2023/02/24 09:26:12;;;;;;;22.15;11.70;;;;;;;;;;4989537;28;20068;-74
2023/02/24 09:28:47;;;;;;;20.63;11.40;;;;;;;;;;4988758;28;20064;-70
2023/02/24 09:31:15;;;;;;;42.30;11.70;;;;;;;;;;5007190;28;20064;-71
2023/02/24 09:33:41;;;;;;;20.30;10.02;;;;;;;;;;5005905;28;20018;-69
2023/02/24 09:36:09;;;;;;;23.33;10.93;;;;;;;;;;5007524;28;20461;-72
2023/02/24 09:41:30;;;;;;;19.23;8.52;;;;;;;;;;5007890;28;20026;-71
2023/02/24 09:43:58;;;;;;;22.35;9.65;;;;;;;;;;4989392;28;20061;-72
2023/02/24 09:46:24;;;;;;;21.52;9.65;;;;;;;;;;4989891;28;20044;-72
2023/02/24 09:48:55;;;;;;;20.27;9.95;;;;;;;;;;5006038;28;20029;-71
2023/02/24 09:51:21;;;;;;;17.02;9.23;;;;;;;;;;5012730;28;20037;-72
2023/02/24 09:53:55;;;;;;;23.20;8.75;;;;;;;;;;4991907;28;20377;-70
2023/02/24 09:56:29;;;;;;;27.27;7.88;;;;;;;;;;5007026;28;20052;-70
2023/02/24 09:59:13;;;;;;;18.55;8.32;;;;;;;;;;5008364;28;20030;-70
2023/02/24 10:01:41;;;;;;;26.58;8.63;;;;;;;;;;4998901;28;20048;-73
2023/02/24 10:04:17;;;;;;;16.55;7.43;;;;;;;;;;5008403;28;20074;-73
2023/02/24 10:06:43;;;;;;;27.77;8.23;;;;;;;;;;5004478;28;20037;-74
2023/02/24 10:09:32;;;;;;;23.42;8.02;;;;;;;;;;5012136;28;20030;-74
2023/02/24 10:12:03;;;;;;;24.40;8.52;;;;;;;;;;5009065;28;20032;-74
2023/02/24 10:14:46;;;;;;;16.65;7.57;;;;;;;;;;5010992;28;20117;-72
2023/02/24 10:17:23;;;;;;;20.50;6.93;;;;;;;;;;5006096;28;20030;-70
2023/02/24 10:19:58;;;;;;;17.30;6.60;;;;;;;;;;4994722;28;20029;-71
2023/02/24 10:22:29;;;;;;;14.23;6.93;;;;;;;;;;4983471;28;20479;-78
2023/02/24 10:25:09;;;;;;;14.63;6.40;;;;;;;;;;5013575;28;20078;-70
2023/02/24 10:27:58;;;;;;;18.25;7.25;;;;;;;;;;5007151;28;20040;-71
2023/02/24 10:30:41;;;;;;;15.98;6.43;;;;;;;;;;4994382;28;20180;-72
2023/02/24 10:33:13;;;;;;;15.02;7.40;;;;;;;;;;4995674;28;20033;-74
2023/02/24 10:35:39;;;;;;;21.52;9.55;;;;;;;;;;4989783;28;20022;-70
2023/02/24 10:38:04;;;;;;;24.00;13.02;;;;;;;;;;5008734;28;20021;-71
2023/02/24 10:40:45;;;;;;;20.02;11.45;;;;;;;;;;5006584;28;20486;-75
2023/02/24 10:43:16;;;;;;;22.20;12.32;;;;;;;;;;5006403;28;20034;-71
2023/02/24 10:45:45;;;;;;;20.05;11.30;;;;;;;;;;4982810;28;20030;-70
2023/02/24 10:48:23;;;;;;;21.00;11.05;;;;;;;;;;4991690;28;20066;-68
2023/02/24 10:50:53;;;;;;;27.02;12.68;;;;;;;;;;5007181;28;20062;-69
2023/02/24 10:54:08;;;;;;;22.02;11.57;;;;;;;;;;4990042;28;20473;-70
2023/02/24 10:56:40;;;;;;;22.48;11.60;;;;;;;;;;5012815;28;20257;-71
2023/02/24 10:59:39;;;;;;;22.05;11.15;;;;;;;;;;5007816;28;20030;-70
2023/02/24 11:02:44;;;;;;;23.00;11.43;;;;;;;;;;5009013;28;20042;-70
2023/02/24 11:05:26;;;;;;;27.35;10.38;;;;;;;;;;5003763;28;20041;-69
2023/02/24 11:08:06;;;;;;;21.65;9.63;;;;;;;;;;5008301;28;20503;-69
2023/02/24 11:10:51;;;;;;;29.27;11.63;;;;;;;;;;5005812;28;20037;-71
2023/02/24 11:18:48;;;;;;;31.10;16.02;;;;;;;;;;5004327;28;20014;-70
2023/02/24 11:21:14;;;;;;;29.83;16.88;;;;;;;;;;5004954;28;20056;-70
2023/02/24 11:23:41;;;;;;;28.65;15.32;;;;;;;;;;5007090;28;20026;-68
2023/02/24 11:26:15;;;;;;;30.90;17.27;;;;;;;;;;5009154;28;20122;-75
2023/02/24 11:28:59;;;;;;;30.98;15.73;;;;;;;;;;5009693;28;20018;-74
2023/02/24 11:31:34;;;;;;;36.88;15.55;;;;;;;;;;5006668;28;20026;-73
2023/02/24 11:34:19;;;;;;;30.00;15.45;;;;;;;;;;5006942;28;20057;-74
2023/02/24 11:36:47;;;;;;;30.65;14.75;;;;;;;;;;4989427;28;20053;-75
2023/02/24 11:39:15;;;;;;;26.77;14.80;;;;;;;;;;5005913;28;20407;-73
2023/02/24 11:41:46;;;;;;;33.13;15.07;;;;;;;;;;4980758;28;20076;-72
2023/02/24 11:44:18;;;;;;;26.52;12.52;;;;;;;;;;5007947;28;20109;-71
2023/02/24 11:47:06;;;;;;;29.65;13.10;;;;;;;;;;5005192;28;20084;-72
2023/02/24 11:49:51;;;;;;;22.73;12.07;;;;;;;;;;4988738;28;20030;-72
2023/02/24 11:52:26;;;;;;;27.33;12.02;;;;;;;;;;5006604;28;20030;-73
2023/02/24 11:54:52;;;;;;;22.95;13.35;;;;;;;;;;5003701;28;20032;-72
2023/02/24 11:57:40;;;;;;;28.75;12.27;;;;;;;;;;5001738;28;20113;-72
2023/02/24 12:00:14;;;;;;;26.55;11.50;;;;;;;;;;5015058;28;20324;-70
2023/02/24 12:02:50;;;;;;;23.58;12.32;;;;;;;;;;5005959;28;20080;-72
2023/02/24 12:05:17;;;;;;;24.63;13.38;;;;;;;;;;5005283;28;20072;-72
2023/02/24 12:07:54;;;;;;;21.63;11.23;;;;;;;;;;4984787;28;20554;-73
2023/02/24 12:10:28;;;;;;;26.58;12.18;;;;;;;;;;4997023;28;20037;-77
2023/02/24 12:12:59;;;;;;;25.48;10.77;;;;;;;;;;4991348;28;20030;-77
2023/02/24 12:15:24;;;;;;;20.40;10.85;;;;;;;;;;4991538;28;20076;-72
2023/02/24 12:18:03;;;;;;;24.30;11.03;;;;;;;;;;4990811;28;20041;-72
2023/02/24 12:20:47;;;;;;;26.77;11.95;;;;;;;;;;4987768;28;20029;-72
2023/02/24 12:23:14;;;;;;;18.17;9.43;;;;;;;;;;4979355;28;20331;-71
2023/02/24 12:25:58;;;;;;;27.17;10.20;;;;;;;;;;5006105;28;20092;-71
2023/02/24 12:28:33;;;;;;;17.38;8.95;;;;;;;;;;4988486;28;20029;-80
2023/02/24 12:31:12;;;;;;;22.27;9.93;;;;;;;;;;4995145;28;20014;-74
2023/02/24 12:33:52;;;;;;;21.50;11.13;;;;;;;;;;4993520;28;20076;-76
2023/02/24 12:36:47;;;;;;;19.88;8.70;;;;;;;;;;5005710;28;20033;-75
2023/02/24 12:39:20;;;;;;;17.30;8.35;;;;;;;;;;4989587;28;20076;-75
2023/02/24 12:42:04;;;;;;;22.42;7.57;;;;;;;;;;5003137;28;20068;-74
2023/02/24 12:44:33;;;;;;;17.35;7.93;;;;;;;;;;4973663;28;20026;-76
2023/02/24 12:47:10;;;;;;;17.70;8.40;;;;;;;;;;5004763;28;20097;-75
2023/02/24 12:49:35;;;;;;;18.15;7.05;;;;;;;;;;5003386;28;20112;-77
2023/02/24 12:52:13;;;;;;;18.40;6.43;;;;;;;;;;5007427;28;20029;-75
2023/02/24 12:54:47;;;;;;;19.75;6.25;;;;;;;;;;5006935;28;20064;-76
2023/02/24 12:57:32;;;;;;;15.48;7.50;;;;;;;;;;5006545;28;20022;-76
2023/02/24 13:00:01;;;;;;;18.13;6.80;;;;;;;;;;5006112;28;20556;-73
2023/02/24 13:02:26;;;;;;;24.85;6.18;;;;;;;;;;5010984;28;20025;-76
2023/02/24 13:05:21;;;;;;;12.27;6.03;;;;;;;;;;5013048;28;20144;-77
2023/02/24 13:07:49;;;;;;;15.23;6.00;;;;;;;;;;4988274;28;20036;-73
2023/02/24 13:10:21;;;;;;;14.77;5.95;;;;;;;;;;4986908;28;20057;-72
2023/02/24 13:13:06;;;;;;;13.32;6.80;;;;;;;;;;4978462;28;20122;-73
2023/02/24 13:15:31;;;;;;;16.02;6.32;;;;;;;;;;5004722;28;20109;-70
2023/02/24 13:17:57;;;;;;;12.20;5.90;;;;;;;;;;5004360;28;20041;-70
2023/02/24 13:20:33;;;;;;;19.00;5.53;;;;;;;;;;5004843;28;20026;-70
2023/02/24 13:22:59;;;;;;;14.20;5.50;;;;;;;;;;4985578;28;20021;-71
2023/02/24 13:25:45;;;;;;;16.70;6.90;;;;;;;;;;4988078;28;20021;-71
2023/02/24 13:28:37;;;;;;;14.70;5.95;;;;;;;;;;4988808;28;20510;-75
2023/02/24 13:31:10;;;;;;;14.98;6.63;;;;;;;;;;4985569;28;20038;-76
2023/02/24 13:33:37;;;;;;;15.73;7.10;;;;;;;;;;5005597;28;21370;-75
2023/02/24 13:36:11;;;;;;;23.55;7.80;;;;;;;;;;5016368;28;20216;-76
2023/02/24 13:38:38;;;;;;;20.17;6.45;;;;;;;;;;5006644;28;20053;-77
2023/02/24 13:41:08;;;;;;;16.08;6.13;;;;;;;;;;4988789;28;20109;-74
2023/02/24 13:43:34;;;;;;;12.65;5.88;;;;;;;;;;5005081;28;20026;-78
2023/02/24 13:46:00;;;;;;;19.38;6.25;;;;;;;;;;5006372;28;20113;-71
2023/02/24 13:48:52;;;;;;;18.42;5.68;;;;;;;;;;4989799;28;20030;-71
2023/02/24 13:51:17;;;;;;;17.67;6.00;;;;;;;;;;4988706;28;20022;-70
2023/02/24 13:54:08;;;;;;;15.43;5.30;;;;;;;;;;4974691;28;20034;-71
2023/02/24 13:56:39;;;;;;;13.93;6.35;;;;;;;;;;4984970;28;20655;-73
2023/02/24 13:59:23;;;;;;;16.75;5.32;;;;;;;;;;5006927;28;20105;-71
2023/02/24 14:02:07;;;;;;;16.90;5.05;;;;;;;;;;4991992;28;20030;-71
2023/02/24 14:04:34;;;;;;;14.77;5.03;;;;;;;;;;5004387;28;20037;-72
2023/02/24 14:07:07;;;;;;;17.20;5.05;;;;;;;;;;5008104;28;20085;-73
2023/02/24 14:09:36;;;;;;;16.27;5.65;;;;;;;;;;5008805;28;20037;-73
2023/02/24 14:12:24;;;;;;;20.27;7.10;;;;;;;;;;5007407;28;20092;-76
2023/02/24 14:14:50;;;;;;;14.45;6.05;;;;;;;;;;4993922;28;20041;-77
2023/02/24 14:17:27;;;;;;;19.25;6.15;;;;;;;;;;5007706;28;20481;-76
2023/02/24 14:19:52;;;;;;;21.50;8.05;;;;;;;;;;5006988;28;20048;-74
2023/02/24 14:22:18;;;;;;;16.88;5.90;;;;;;;;;;4988214;28;20022;-72
2023/02/24 14:24:43;;;;;;;14.25;5.53;;;;;;;;;;4989431;28;20473;-72
2023/02/24 14:27:19;;;;;;;16.53;5.53;;;;;;;;;;4990917;28;20037;-72
2023/02/24 14:29:44;;;;;;;11.70;5.30;;;;;;;;;;5005022;28;20307;-72
2023/02/24 14:32:20;;;;;;;18.63;6.13;;;;;;;;;;5008212;28;20105;-71
2023/02/24 14:34:46;;;;;;;14.32;5.70;;;;;;;;;;5008335;28;20069;-71
2023/02/24 14:37:16;;;;;;;15.40;5.57;;;;;;;;;;4990140;28;20541;-79
2023/02/24 14:39:48;;;;;;;16.25;6.38;;;;;;;;;;5015125;28;20382;-75
2023/02/24 14:42:14;;;;;;;22.92;6.63;;;;;;;;;;4989729;28;20026;-71
2023/02/24 14:44:44;;;;;;;19.92;6.75;;;;;;;;;;4990794;28;20041;-71
2023/02/24 14:47:10;;;;;;;14.38;5.72;;;;;;;;;;5011232;28;20037;-71
2023/02/24 14:49:36;;;;;;;13.50;6.53;;;;;;;;;;5001993;28;20026;-72
2023/02/24 14:52:01;;;;;;;13.40;6.03;;;;;;;;;;5005919;28;20083;-72
2023/02/24 14:54:38;;;;;;;16.07;6.27;;;;;;;;;;4999047;28;20292;-72
2023/02/24 14:57:04;;;;;;;15.10;6.70;;;;;;;;;;5003147;28;20029;-71
2023/02/24 14:59:34;;;;;;;17.48;5.28;;;;;;;;;;4989837;28;20050;-76
2023/02/24 15:02:01;;;;;;;17.15;5.93;;;;;;;;;;4993272;28;20034;-75